Terminal Aerodrome Forecast
Issued by NWS Sioux Falls, SD

Home | Current Version | Previous Version | Graphics & Text | Print | Product List | Glossary On
Versions: 1 2 3 4 5 6 7 8 9 10 11 12 13 14 15 16 17 18
000
FTUS43 KFSD 310520
TAFSUX
TAF
KSUX 310520Z 3106/0106 36016G23KT P6SM FEW020
     FM310800 01010KT P6SM SCT015
     FM311500 03010KT P6SM SKC
     FM312300 10004KT P6SM SCT250=

USA.gov is the U.S. government's official web portal to all federal, state and local government web resources and services.